Time;durP1;ratioP1;P1;durP2;ratioP2;P2;SDS_P1;SDS_P2;PMS_P1;PMS_P2;Temp;Humidity;BMP_temperature;BMP_pressure;BME280_temperature;BME280_humidity;BME280_pressure;Samples;Min_cycle;Max_cycle;Signal;HPM_P1;HPM_P2
2023/03/22 00:02:03;;;;;;;;;;;;;;;;;;5057629;28;20368;-73
2023/03/22 00:04:30;;;;;;;;;;;;;;;;;;5057611;28;20502;-73
2023/03/22 00:06:56;;;;;;;;;;;;;;;;;;5057233;28;20381;-74
2023/03/22 00:09:22;;;;;;;;;;;;;;;;;;5057149;28;19909;-74
2023/03/22 00:11:49;;;;;;;;;;;12.20;99.90;;;;;;5057135;28;19936;-73
2023/03/22 00:14:16;;;;;;;;;;;12.20;99.90;;;;;;5057064;28;19908;-74
2023/03/22 00:16:41;;;;;;;;;;;12.30;99.90;;;;;;5056984;28;19990;-74
2023/03/22 00:19:07;;;;;;;;;;;12.20;99.90;;;;;;5057087;28;19979;-75
2023/03/22 00:21:33;;;;;;;;;;;;;;;;;;5056914;28;19909;-74
2023/03/22 00:23:59;;;;;;;;;;;12.30;99.90;;;;;;5056894;28;19963;-74
2023/03/22 00:26:24;;;;;;;;;;;12.40;99.90;;;;;;5056855;28;19913;-74
2023/03/22 00:28:50;;;;;;;;;;;12.30;99.90;;;;;;5056851;28;19919;-73
2023/03/22 00:31:16;;;;;;;;;;;;;;;;;;5056881;28;19916;-74
2023/03/22 00:33:42;;;;;;;;;;;;;;;;;;5056656;28;19909;-74
2023/03/22 00:36:08;;;;;;;;;;;;;;;;;;5056556;28;19960;-74
2023/03/22 00:38:37;;;;;;;;;;;;;;;;;;5056772;28;20391;-74
2023/03/22 00:41:04;;;;;;;;;;;;;;;;;;5056174;28;19921;-74
2023/03/22 00:43:30;;;;;;;;;;;;;;;;;;5056504;28;19909;-74
2023/03/22 00:45:56;;;;;;;;;;;;;;;;;;5056448;28;20388;-73
2023/03/22 00:48:22;;;;;;;;;;;;;;;;;;5056746;28;20392;-74
2023/03/22 00:50:48;;;;;;;;;;;;;;;;;;5056446;28;19916;-74
2023/03/22 00:53:14;;;;;;;;;;;;;;;;;;5056399;28;20003;-73
2023/03/22 00:55:40;;;;;;;;;;;;;;;;;;5054973;28;19961;-73
2023/03/22 00:58:06;;;;;;;;;;;;;;;;;;5056609;28;19909;-74
2023/03/22 01:00:32;;;;;;;;;;;;;;;;;;5056387;28;19940;-74
2023/03/22 01:03:02;;;;;;;;;;;;;;;;;;5054852;28;20358;-74
2023/03/22 01:05:28;;;;;;;;;;;;;;;;;;5056237;28;20003;-73
2023/03/22 01:07:55;;;;;;;;;;;;;;;;;;5056563;28;19915;-73
2023/03/22 01:10:22;;;;;;;;;;;;;;;;;;5056054;28;19995;-73
2023/03/22 01:12:48;;;;;;;;;;;;;;;;;;5056299;28;19908;-73
2023/03/22 01:15:15;;;;;;;;;;;;;;;;;;5056092;28;19913;-75
2023/03/22 01:17:42;;;;;;;;;;;;;;;;;;5055905;28;19919;-73
2023/03/22 01:20:08;;;;;;;;;;;;;;;;;;5055919;28;19917;-74
2023/03/22 01:22:35;;;;;;;;;;;;;;;;;;5055787;28;19947;-75
2023/03/22 01:25:01;;;;;;;;;;;;;;;;;;5055762;28;19963;-73
2023/03/22 01:27:28;;;;;;;;;;;;;;;;;;5054386;28;19944;-73
2023/03/22 01:29:54;;;;;;;;;;;;;;;;;;5055658;28;19915;-73
2023/03/22 01:32:20;;;;;;;;;;;;;;;;;;5055619;28;19912;-74
2023/03/22 01:34:46;;;;;;;;;;;12.10;99.90;;;;;;5055505;28;19909;-73
2023/03/22 01:37:11;;;;;;;;;;;12.40;99.90;;;;;;5055570;28;20284;-74
2023/03/22 01:39:37;;;;;;;;;;;12.40;99.90;;;;;;5055569;28;19920;-74
2023/03/22 01:42:03;;;;;;;;;;;12.50;99.90;;;;;;5055240;28;20376;-74
2023/03/22 01:44:29;;;;;;;;;;;12.40;99.90;;;;;;5055501;28;19909;-74
2023/03/22 01:46:55;;;;;;;;;;;12.40;99.90;;;;;;5055401;28;19915;-74
2023/03/22 01:49:20;;;;;;;;;;;12.40;99.90;;;;;;5055720;28;19909;-74
2023/03/22 01:51:48;;;;;;;;;;;12.40;99.90;;;;;;5055429;28;19912;-74
2023/03/22 01:54:20;;;;;;;;;;;12.40;99.90;;;;;;5070632;28;20376;-73
2023/03/22 01:56:46;;;;;;;;;;;12.30;99.90;;;;;;5070209;28;20007;-74
2023/03/22 01:59:13;;;;;;;;;;;12.30;99.90;;;;;;5055089;28;19909;-74
2023/03/22 02:01:39;;;;;;;;;;;12.30;99.90;;;;;;5055082;28;19915;-73
2023/03/22 02:04:14;;;;;;;;;;;12.30;99.90;;;;;;5070408;28;20297;-74
2023/03/22 02:06:40;;;;;;;;;;;12.30;99.90;;;;;;5054952;28;20416;-74
2023/03/22 02:09:10;;;;;;;;;;;12.30;99.90;;;;;;5055135;28;19909;-74
2023/03/22 02:11:40;;;;;;;;;;;12.30;99.90;;;;;;5055064;28;19908;-74
2023/03/22 02:14:10;;;;;;;;;;;12.30;99.90;;;;;;5054824;28;19955;-74
2023/03/22 02:16:35;;;;;;;;;;;12.30;99.90;;;;;;5054699;28;20292;-74
2023/03/22 02:19:17;;;;;;;;;;;12.30;99.90;;;;;;5055140;28;19909;-73
2023/03/22 02:21:42;;;;;;;;;;;12.30;99.90;;;;;;5054204;28;19952;-74
2023/03/22 02:24:26;;;;;;;;;;;12.30;99.90;;;;;;5054721;28;19944;-73
2023/03/22 02:27:30;;;;;;;;;;;12.30;99.90;;;;;;5054588;28;19909;-74
2023/03/22 02:29:55;;;;;;;;;;;12.30;99.90;;;;;;4973802;28;19917;-74
2023/03/22 02:32:36;;;;;;;;;;;12.30;99.90;;;;;;4973765;28;19910;-74
2023/03/22 02:35:04;;;;;;;;;;;12.40;99.90;;;;;;5019180;28;19913;-74
2023/03/22 02:37:31;;;;;;;;;;;12.40;99.90;;;;;;5054359;28;19963;-73
2023/03/22 02:39:59;;;;;;;;;;;12.40;99.90;;;;;;5054269;28;19920;-74
2023/03/22 02:42:28;;;;;;;;;;;12.40;99.90;;;;;;5054323;28;19909;-74
2023/03/22 02:44:55;;;;;;;;;;;;;;;;;;5054485;28;19909;-73
2023/03/22 02:47:21;;;;;;;;;;;;;;;;;;5054587;28;19920;-74
2023/03/22 02:49:48;;;;;;;;;;;;;;;;;;5054157;28;19917;-73
2023/03/22 02:52:16;;;;;;;;;;;;;;;;;;5054311;28;19952;-73
2023/03/22 02:54:42;;;;;;;;;;;;;;;;;;5054034;28;20281;-72
2023/03/22 02:57:08;;;;;;;;;;;;;;;;;;5053938;28;19913;-73
2023/03/22 02:59:36;;;;;;;;;;;;;;;;;;5054419;28;20007;-74
2023/03/22 03:02:02;;;;;;;;;;;;;;;;;;5053984;28;19909;-74
2023/03/22 03:04:28;;;;;;;;;;;;;;;;;;5053905;28;19908;-74
2023/03/22 03:06:54;;;;;;;;;;;;;;;;;;5053913;28;19978;-74
2023/03/22 03:09:20;;;;;;;;;;;;;;;;;;5053899;28;20426;-75
2023/03/22 03:11:46;;;;;;;;;;;;;;;;;;5053840;28;20006;-74
2023/03/22 03:14:12;;;;;;;;;;;;;;;;;;5054000;28;19908;-74
2023/03/22 03:16:39;;;;;;;;;;;;;;;;;;5053735;28;20329;-74
2023/03/22 03:19:04;;;;;;;;;;;;;;;;;;5053945;28;19909;-75
2023/03/22 03:21:31;;;;;;;;;;;;;;;;;;5053748;28;19971;-74
2023/03/22 03:23:57;;;;;;;;;;;;;;;;;;5053624;28;20452;-73
2023/03/22 03:26:23;;;;;;;;;;;;;;;;;;5053621;28;19999;-73
2023/03/22 03:28:49;;;;;;;;;;;;;;;;;;5053864;28;19947;-73
2023/03/22 03:31:15;;;;;;;;;;;;;;;;;;5053559;28;19908;-74
2023/03/22 03:33:41;;;;;;;;;;;;;;;;;;5053502;28;19919;-75
2023/03/22 03:36:07;;;;;;;;;;;;;;;;;;5053882;28;19919;-74
2023/03/22 03:38:34;;;;;;;;;;;;;;;;;;5053518;28;19955;-74
2023/03/22 03:41:00;;;;;;;;;;;;;;;;;;5053138;28;20396;-74
2023/03/22 03:43:26;;;;;;;;;;;;;;;;;;5053446;28;19916;-73
2023/03/22 03:45:52;;;;;;;;;;;;;;;;;;5052203;28;20277;-74
2023/03/22 03:48:18;;;;;;;;;;;;;;;;;;5053615;28;19961;-74
2023/03/22 03:50:43;;;;;;;;;;;;;;;;;;5053387;28;19971;-74
2023/03/22 03:53:10;;;;;;;;;;;;;;;;;;5053413;28;19913;-73
2023/03/22 03:55:36;;;;;;;;;;;;;;;;;;5053308;28;19917;-74
2023/03/22 03:58:02;;;;;;;;;;;;;;;;;;5053422;28;19915;-74
2023/03/22 04:00:28;;;;;;;;;;;;;;;;;;5053459;28;19909;-75
2023/03/22 04:02:54;;;;;;;;;;;;;;;;;;5053366;28;20028;-74
2023/03/22 04:05:20;;;;;;;;;;;;;;;;;;5053238;28;20000;-74
2023/03/22 04:07:46;;;;;;;;;;;;;;;;;;5053251;28;19948;-75
2023/03/22 04:10:12;;;;;;;;;;;;;;;;;;5053485;28;19909;-75
2023/03/22 04:12:38;;;;;;;;;;;;;;;;;;5053200;28;19909;-74
2023/03/22 04:15:04;;;;;;;;;;;;;;;;;;5053089;28;19909;-73
2023/03/22 04:17:30;;;;;;;;;;;;;;;;;;5053590;28;19909;-74
2023/03/22 04:19:56;;;;;;;;;;;;;;;;;;5053309;28;19909;-73
2023/03/22 04:22:22;;;;;;;;;;;;;;;;;;5053670;28;20273;-74
2023/03/22 04:24:51;;;;;;;;;;;;;;;;;;5053039;28;19909;-73
2023/03/22 04:27:17;;;;;;;;;;;;;;;;;;5051743;28;19909;-74
2023/03/22 04:29:49;;;;;;;;;;;;;;;;;;5053048;28;20399;-74
2023/03/22 04:32:17;;;;;;;;;;;;;;;;;;5051684;28;19916;-73
2023/03/22 04:34:43;;;;;;;;;;;;;;;;;;5051500;28;19916;-75
2023/03/22 04:37:09;;;;;;;;;;;;;;;;;;5052902;28;19912;-74
2023/03/22 04:39:35;;;;;;;;;;;;;;;;;;5052506;28;20301;-74
2023/03/22 04:42:01;;;;;;;;;;;;;;;;;;5052925;28;19948;-73
2023/03/22 04:44:27;;;;;;;;;;;;;;;;;;5054528;28;19908;-75
2023/03/22 04:46:54;;;;;;;;;;;;;;;;;;5056638;28;20377;-74
2023/03/22 04:49:20;;;;;;;;;;;;;;;;;;5055187;28;19917;-75
2023/03/22 04:51:46;;;;;;;;;;;;;;;;;;5056626;28;19909;-74
2023/03/22 04:54:12;;;;;;;;;;;;;;;;;;5056539;28;19909;-74
2023/03/22 04:56:38;;;;;;;;;;;;;;;;;;5056200;28;19919;-73
2023/03/22 04:59:04;;;;;;;;;;;;;;;;;;5056331;28;19909;-74
2023/03/22 05:01:30;;;;;;;;;;;;;;;;;;5056268;28;19940;-75
2023/03/22 05:03:56;;;;;;;;;;;;;;;;;;5056200;28;20289;-74
2023/03/22 05:06:22;;;;;;;;;;;;;;;;;;5054842;28;20365;-74
2023/03/22 05:08:48;;;;;;;;;;;;;;;;;;5056026;28;19909;-74
2023/03/22 05:11:14;;;;;;;;;;;;;;;;;;5055984;28;19913;-74
2023/03/22 05:13:39;;;;;;;;;;;;;;;;;;5054682;28;19915;-74
2023/03/22 05:16:05;;;;;;;;;;;;;;;;;;5055865;28;19913;-75
2023/03/22 05:18:31;;;;;;;;;;;;;;;;;;5056111;28;19909;-75
2023/03/22 05:20:57;;;;;;;;;;;;;;;;;;5055890;28;19912;-73
2023/03/22 05:23:23;;;;;;;;;;;;;;;;;;5055810;28;19962;-74
2023/03/22 05:25:49;;;;;;;;;;;;;;;;;;5055958;28;19948;-73
2023/03/22 05:28:15;;;;;;;;;;;;;;;;;;5055724;28;19916;-74
2023/03/22 05:30:41;;;;;;;;;;;;;;;;;;5055880;28;19913;-73
2023/03/22 05:33:07;;;;;;;;;;;;;;;;;;5055656;28;19908;-74
2023/03/22 05:35:34;;;;;;;;;;;;;;;;;;5054180;28;19913;-75
2023/03/22 05:38:01;;;;;;;;;;;;;;;;;;5055463;28;19912;-74
2023/03/22 05:40:29;;;;;;;;;;;;;;;;;;5055449;28;19921;-74
2023/03/22 05:42:55;;;;;;;;;;;;;;;;;;5055585;28;19999;-74
2023/03/22 05:45:21;;;;;;;;;;;;;;;;;;5055498;28;19959;-74
2023/03/22 05:47:47;;;;;;;;;;;;;;;;;;5055508;28;20289;-73
2023/03/22 05:50:13;;;;;;;;;;;;;;;;;;5055328;28;20388;-73
2023/03/22 05:52:39;;;;;;;;;;;;;;;;;;5055319;28;19909;-74
2023/03/22 05:55:06;;;;;;;;;;;;;;;;;;5054391;28;19909;-73
2023/03/22 05:57:32;;;;;;;;;;;;;;;;;;5053429;28;20301;-72
2023/03/22 05:59:58;;;;;;;;;;;;;;;;;;5055130;28;19909;-73
2023/03/22 06:02:24;;;;;;;;;;;;;;;;;;5055118;28;19909;-73
2023/03/22 06:04:51;;;;;;;;;;;;;;;;;;5055130;28;19932;-73
2023/03/22 06:07:16;;;;;;;;;;;;;;;;;;5054958;28;20348;-74
2023/03/22 06:09:42;;;;;;;;;;;;;;;;;;5053663;28;19951;-74
2023/03/22 06:12:08;;;;;;;;;;;;;;;;;;5055147;28;20281;-74
2023/03/22 06:14:34;;;;;;;;;;;;;;;;;;5054900;28;19916;-72
2023/03/22 06:17:00;;;;;;;;;;;;;;;;;;5054716;28;19939;-74
2023/03/22 06:19:26;;;;;;;;;;;;;;;;;;5055190;28;20381;-75
2023/03/22 06:21:52;;;;;;;;;;;;;;;;;;5054697;28;19909;-74
2023/03/22 06:24:18;;;;;;;;;;;;;;;;;;5054835;28;20363;-75
2023/03/22 06:26:44;;;;;;;;;;;;;;;;;;5054603;28;19919;-74
2023/03/22 06:29:10;;;;;;;;;;;;;;;;;;5054550;28;20373;-75
2023/03/22 06:31:36;;;;;;;;;;;;;;;;;;5054766;28;19909;-74
2023/03/22 06:34:02;;;;;;;;;;;;;;;;;;5054484;28;20388;-74
2023/03/22 06:36:28;;;;;;;;;;;;;;;;;;5054500;28;19917;-76
2023/03/22 06:38:54;;;;;;;;;;;;;;;;;;5054315;28;19909;-75
2023/03/22 06:41:20;;;;;;;;;;;;;;;;;;5054136;28;19927;-74
2023/03/22 06:43:46;;;;;;;;;;;;;;;;;;5054206;28;19991;-75
2023/03/22 06:46:12;;;;;;;;;;;;;;;;;;5054260;28;19995;-75
2023/03/22 06:48:38;;;;;;;;;;;;;;;;;;5054190;28;19916;-75
2023/03/22 06:51:04;;;;;;;;;;;;;;;;;;5054451;28;20296;-74
2023/03/22 06:53:30;;;;;;;;;;;;;;;;;;5054131;28;19916;-75
2023/03/22 06:55:56;;;;;;;;;;;;;;;;;;5054017;28;19970;-75
2023/03/22 06:58:22;;;;;;;;;;;;;;;;;;5054080;28;20389;-77
2023/03/22 07:00:48;;;;;;;;;;;;;;;;;;5054021;28;19909;-74
2023/03/22 07:03:14;;;;;;;;;;;;;;;;;;5054243;28;19916;-75
2023/03/22 07:05:40;;;;;;;;;;;;;;;;;;5053907;28;19916;-74
2023/03/22 07:08:06;;;;;;;;;;;;;;;;;;5053643;28;19909;-74
2023/03/22 07:10:32;;;;;;;;;;;;;;;;;;5053846;28;20011;-75
2023/03/22 07:12:58;;;;;;;;;;;;;;;;;;5053782;28;19909;-75
2023/03/22 07:15:23;;;;;;;;;;;;;;;;;;5054155;28;20361;-76
2023/03/22 07:17:50;;;;;;;;;;;;;;;;;;5053756;28;19999;-75
2023/03/22 07:20:16;;;;;;;;;;;;;;;;;;5053992;28;20003;-75
2023/03/22 07:22:42;;;;;;;;;;;;;;;;;;5053751;28;19963;-75
2023/03/22 07:25:08;;;;;;;;;;;;;;;;;;5053740;28;20007;-75
2023/03/22 07:27:34;;;;;;;;;;;;;;;;;;5054013;28;20369;-75
2023/03/22 07:30:00;;;;;;;;;;;;;;;;;;5053644;28;19908;-75
2023/03/22 07:32:26;;;;;;;;;;;;;;;;;;5053714;28;20437;-75
2023/03/22 07:34:51;;;;;;;;;;;;;;;;;;5053563;28;19916;-76
2023/03/22 07:37:17;;;;;;;;;;;;;;;;;;5053478;28;20274;-75
2023/03/22 07:39:43;;;;;;;;;;;;;;;;;;5053588;28;19921;-75
2023/03/22 07:42:09;;;;;;;;;;;;;;;;;;5053498;28;20042;-75
2023/03/22 07:44:35;;;;;;;;;;;;;;;;;;5053408;28;19909;-75
2023/03/22 07:47:01;;;;;;;;;;;;;;;;;;5053284;28;19966;-75
2023/03/22 07:49:27;;;;;;;;;;;;;;;;;;5053421;28;19909;-75
2023/03/22 07:51:53;;;;;;;;;;;;;;;;;;5053565;28;19916;-75
2023/03/22 07:54:19;;;;;;;;;;;;;;;;;;5053622;28;20281;-75
2023/03/22 07:56:46;;;;;;;;;;;;;;;;;;5053201;28;19942;-75
2023/03/22 07:59:12;;;;;;;;;;;;;;;;;;5053317;28;19913;-75
2023/03/22 08:01:38;;;;;;;;;;;;;;;;;;5053297;28;20362;-74
2023/03/22 08:04:04;;;;;;;;;;;;;;;;;;5053550;28;20007;-74
2023/03/22 08:06:31;;;;;;;;;;;;;;;;;;5053225;28;20129;-74
2023/03/22 08:08:57;;;;;;;;;;;;;;;;;;5053267;28;19916;-75
2023/03/22 08:11:23;;;;;;;;;;;;;;;;;;5053472;28;19909;-75
2023/03/22 08:13:49;;;;;;;;;;;;;;;;;;5053189;28;20408;-75
2023/03/22 08:16:15;;;;;;;;;;;;;;;;;;5053063;28;19913;-74
2023/03/22 08:18:41;;;;;;;;;;;;;;;;;;5053585;28;19913;-74
2023/03/22 08:21:07;;;;;;;;;;;;;;;;;;5055673;28;20412;-75
2023/03/22 08:23:33;;;;;;;;;;;;;;;;;;5055650;28;19909;-74
2023/03/22 08:25:59;;;;;;;;;;;;;;;;;;5056905;28;19908;-75
2023/03/22 08:28:25;;;;;;;;;;;;;;;;;;5057159;28;20007;-75
2023/03/22 08:30:51;;;;;;;;;;;;;;;;;;5056870;28;19963;-75
2023/03/22 08:33:20;;;;;;;;;;;;;;;;;;5056923;28;19909;-75
2023/03/22 08:35:45;;;;;;;;;;;;;;;;;;5056802;28;19912;-75
2023/03/22 08:38:11;;;;;;;;;;;;;;;;;;5056825;28;19909;-74
2023/03/22 08:40:37;;;;;;;;;;;;;;;;;;5056510;28;19928;-75
2023/03/22 08:43:03;;;;;;;;;;;;;;;;;;5056717;28;20296;-75
2023/03/22 08:45:29;;;;;;;;;;;;;;;;;;5056747;28;19978;-76
2023/03/22 08:47:58;;;;;;;;;;;;;;;;;;5055786;28;21343;-74
2023/03/22 08:50:24;;;;;;;;;;;;;;;;;;5056691;28;19916;-74
2023/03/22 08:52:50;;;;;;;;;;;;;;;;;;5056461;28;20316;-75
2023/03/22 08:55:16;;;;;;;;;;;;;;;;;;5056526;28;19948;-75
2023/03/22 08:57:43;;;;;;;;;;;;;;;;;;5056299;28;20302;-76
2023/03/22 09:00:10;;;;;;;;;;;;;;;;;;5056517;28;19909;-75
2023/03/22 09:02:36;;;;;;;;;;;;;;;;;;5056223;28;19909;-75
2023/03/22 09:05:02;;;;;;;;;;;;;;;;;;5056448;28;20257;-75
2023/03/22 09:07:28;;;;;;;;;;;;;;;;;;5056357;28;20364;-74
2023/03/22 09:09:54;;;;;;;;;;;;;;;;;;5056244;28;19909;-75
2023/03/22 09:12:20;;;;;;;;;;;;;;;;;;5056062;28;19909;-74
2023/03/22 09:14:48;;;;;;;;;;;;;;;;;;5056017;28;19916;-75
2023/03/22 09:17:14;;;;;;;;;;;;;;;;;;5054605;28;19912;-75
2023/03/22 09:19:40;;;;;;;;;;;;;;;;;;5055902;28;20285;-74
2023/03/22 09:22:07;;;;;;;;;;;;;;;;;;5055957;28;19908;-75
2023/03/22 09:24:33;;;;;;;;;;;;;;;;;;5056294;28;19915;-74
2023/03/22 09:26:59;;;;;;;;;;;;;;;;;;5056160;28;20292;-73
2023/03/22 09:29:25;;;;;;;;;;;;;;;;;;5055471;28;20397;-74
2023/03/22 09:31:52;;;;;;;;;;;;;;;;;;5055867;28;19913;-75
2023/03/22 09:34:18;;;;;;;;;;;;;;;;;;5055670;28;19970;-73
2023/03/22 09:36:44;;;;;;;;;;;;;;;;;;5055555;28;20403;-74
2023/03/22 09:39:10;;;;;;;;;;;;;;;;;;5054097;28;19916;-74
2023/03/22 09:41:36;;;;;;;;;;;;;;;;;;5055792;28;20377;-75
2023/03/22 09:44:02;;;;;;;;;;;;;;;;;;5055477;28;19909;-74
2023/03/22 09:46:27;;;;;;;;;;;;;;;;;;5055422;28;19909;-73
2023/03/22 09:48:53;;;;;;;;;;;;;;;;;;5055374;28;20007;-75
2023/03/22 09:51:19;;;;;;;;;;;;;;;;;;5055523;28;19928;-75
2023/03/22 09:53:45;;;;;;;;;;;;;;;;;;5055440;28;19916;-75
2023/03/22 09:56:11;;;;;;;;;;;;;;;;;;5055218;28;20369;-75
2023/03/22 09:58:37;;;;;;;;;;;;;;;;;;5055107;28;19909;-75
2023/03/22 10:01:03;;;;;;;;;;;;;;;;;;5055155;28;19915;-77
2023/03/22 10:03:30;;;;;;;;;;;;;;;;;;5055364;28;19909;-74
2023/03/22 10:05:55;;;;;;;;;;;;;;;;;;5055181;28;19909;-74
2023/03/22 10:08:21;;;;;;;;;;;;;;;;;;5054986;28;19913;-74
2023/03/22 10:10:47;;;;;;;;;;;;;;;;;;5055148;28;19909;-75
2023/03/22 10:13:14;;;;;;;;;;;;;;;;;;5054965;28;20300;-75
2023/03/22 10:15:40;;;;;;;;;;;;;;;;;;5055020;28;20003;-75
2023/03/22 10:18:06;;;;;;;;;;;;;;;;;;5054846;28;20368;-75
2023/03/22 10:20:31;;;;;;;;;;;;;;;;;;5054850;28;20361;-74
2023/03/22 10:22:57;;;;;;;;;;;;;;;;;;5054710;28;19908;-75
2023/03/22 10:25:23;;;;;;;;;;;;;;;;;;5055122;28;20312;-75
2023/03/22 10:27:49;;;;;;;;;;;;;;;;;;5054588;28;19916;-76
2023/03/22 10:30:15;;;;;;;;;;;;;;;;;;5054719;28;19909;-76
2023/03/22 10:32:42;;;;;;;;;;;;;;;;;;5054438;28;20410;-75
2023/03/22 10:35:08;;;;;;;;;;;;;;;;;;5054945;28;20003;-75
2023/03/22 10:37:34;;;;;;;;;;;;;;;;;;5054477;28;19959;-76
2023/03/22 10:40:00;;;;;;;;;;;;;;;;;;5054450;28;19920;-76
2023/03/22 10:42:25;;;;;;;;;;;;;;;;;;5053766;28;19908;-77
2023/03/22 10:44:51;;;;;;;;;;;;;;;;;;5054296;28;19913;-76
2023/03/22 10:47:17;;;;;;;;;;;;;;;;;;5054322;28;20289;-75
2023/03/22 10:49:43;;;;;;;;;;;;;;;;;;5054375;28;19931;-75
2023/03/22 10:52:09;;;;;;;;;;;;;;;;;;5054212;28;19916;-75
2023/03/22 10:54:35;;;;;;;;;;;;;;;;;;5054225;28;19909;-76
2023/03/22 10:57:01;;;;;;;;;;;;;;;;;;5053959;28;20384;-75
2023/03/22 10:59:27;;;;;;;;;;;;;;;;;;5054044;28;19915;-75
2023/03/22 11:01:53;;;;;;;;;;;;;;;;;;5054154;28;19909;-74
2023/03/22 11:04:19;;;;;;;;;;;;;;;;;;5053971;28;20369;-75
2023/03/22 11:06:45;;;;;;;;;;;;;;;;;;5054028;28;19913;-75
2023/03/22 11:09:11;;;;;;;;;;;;;;;;;;5053891;28;19912;-75
2023/03/22 11:11:37;;;;;;;;;;;;;;;;;;5054239;28;19923;-75
2023/03/22 11:14:03;;;;;;;;;;;;;;;;;;5053792;28;19909;-74
2023/03/22 11:16:29;;;;;;;;;;;;;;;;;;5053737;28;19913;-77
2023/03/22 11:18:55;;;;;;;;;;;;;;;;;;5052510;28;20064;-76
2023/03/22 11:21:21;;;;;;;;;;;;;;;;;;5053722;28;20369;-75
2023/03/22 11:23:47;;;;;;;;;;;;;;;;;;5053725;28;19909;-75
2023/03/22 11:26:13;;;;;;;;;;;;;;;;;;5053642;28;19916;-75
2023/03/22 11:28:39;;;;;;;;;;;;;;;;;;5053727;28;19916;-74
2023/03/22 11:31:05;;;;;;;;;;;;;;;;;;5053621;28;19916;-75
2023/03/22 11:33:31;;;;;;;;;;;;;;;;;;5052283;28;19909;-74
2023/03/22 11:35:56;;;;;;;;;;;;;;;;;;5053457;28;20011;-75
2023/03/22 11:38:22;;;;;;;;;;;;;;;;;;5053533;28;19908;-75
2023/03/22 11:40:48;;;;;;;;;;;;;;;;;;5053351;28;19927;-75
2023/03/22 11:43:14;;;;;;;;;;;;;;;;;;5053492;28;20008;-75
2023/03/22 11:45:40;;;;;;;;;;;;;;;;;;5053435;28;19908;-74
2023/03/22 11:48:06;;;;;;;;;;;;;;;;;;5053463;28;19909;-75
2023/03/22 11:50:32;;;;;;;;;;;;;;;;;;5053424;28;19916;-74
2023/03/22 11:52:58;;;;;;;;;;;;;;;;;;5054402;28;19909;-75
2023/03/22 11:55:25;;;;;;;;;;;;;;;;;;5057426;28;20377;-75
2023/03/22 11:57:51;;;;;;;;;;;;;;;;;;5057559;28;19909;-75
2023/03/22 12:00:18;;;;;;;;;;;;;;;;;;5057532;28;19958;-75
2023/03/22 12:02:44;;;;;;;;;;;;;;;;;;5057383;28;19913;-75
2023/03/22 12:05:11;;;;;;;;;;;;;;;;;;5057233;28;20366;-76
2023/03/22 12:07:36;;;;;;;;;;;;;;;;;;5055860;28;20288;-75
2023/03/22 12:10:02;;;;;;;;;;;;;;;;;;5057219;28;19909;-75
2023/03/22 12:12:29;;;;;;;;;;;;;;;;;;5057120;28;19915;-75
2023/03/22 12:14:55;;;;;;;;;;;;;;;;;;5057130;28;19940;-76
2023/03/22 12:17:21;;;;;;;;;;;;;;;;;;5055749;28;19916;-76
2023/03/22 12:19:47;;;;;;;;;;;;;;;;;;5057209;28;19908;-76
2023/03/22 12:22:13;;;;;;;;;;;;;;;;;;5057023;28;20387;-76
2023/03/22 12:24:39;;;;;;;;;;;;;;;;;;5055527;28;19909;-76
2023/03/22 12:27:05;;;;;;;;;;;;;;;;;;5057138;28;19932;-74
2023/03/22 12:29:31;;;;;;;;;;;;;;;;;;5057237;28;19983;-75
2023/03/22 12:31:57;;;;;;;;;;;;;;;;;;5057049;28;19909;-75
2023/03/22 12:34:23;;;;;;;;;;;;;;;;;;5056923;28;19909;-76
2023/03/22 12:36:49;;;;;;;;;;;;;;;;;;5056639;28;19936;-77
2023/03/22 12:39:15;;;;;;;;;;;;;;;;;;5056883;28;19908;-75
2023/03/22 12:41:41;;;;;;;;;;;;;;;;;;5055088;28;19913;-75
2023/03/22 12:44:07;;;;;;;;;;;;;;;;;;5056593;28;19909;-76
2023/03/22 12:46:33;;;;;;;;;;;;;;;;;;5056544;28;19988;-77
2023/03/22 12:48:59;;;;;;;;;;;;;;;;;;5055265;28;19970;-77
2023/03/22 12:51:25;;;;;;;;;;;;;;;;;;5056416;28;19908;-76
2023/03/22 12:53:51;;;;;;;;;;;;;;;;;;5056469;28;20339;-77
2023/03/22 12:56:17;;;;;;;;;;;;;;;;;;5056235;28;19913;-77
2023/03/22 12:58:43;;;;;;;;;;;;;;;;;;5056713;28;19908;-75
2023/03/22 13:01:09;;;;;;;;;;;;;;;;;;5057077;28;19954;-76
2023/03/22 13:03:35;;;;;;;;;;;;;;;;;;5056919;28;19916;-76
2023/03/22 13:06:01;;;;;;;;;;;;;;;;;;5056430;28;20442;-77
2023/03/22 13:08:27;;;;;;;;;;;;;;;;;;5056424;28;20003;-77
2023/03/22 13:10:53;;;;;;;;;;;;;;;;;;5056620;28;19963;-77
2023/03/22 13:13:19;;;;;;;;;;;;;;;;;;5056358;28;19927;-76
2023/03/22 13:15:45;;;;;;;;;;;;;;;;;;5056091;28;19916;-76
2023/03/22 13:18:11;;;;;;;;;;;;;;;;;;5056036;28;19916;-77
2023/03/22 13:20:37;;;;;;;;;;;;;;;;;;5055939;28;20328;-76
2023/03/22 13:23:03;;;;;;;;;;;;;;;;;;5056226;28;20288;-76
2023/03/22 13:25:29;;;;;;;;;;;;;;;;;;5055873;28;20003;-76
2023/03/22 13:27:58;;;;;;;;;;;;;;;;;;5055911;28;19940;-76
2023/03/22 13:30:24;;;;;;;;;;;;;;;;;;5055730;28;19909;-75
2023/03/22 13:32:50;;;;;;;;;;;;;;;;;;5055710;28;19935;-76
2023/03/22 13:35:16;;;;;;;;;;;;;;;;;;5055725;28;20353;-75
2023/03/22 13:37:44;;;;;;;;;;;;;;;;;;5055669;28;20282;-77
2023/03/22 13:40:09;;;;;;;;;;;;;;;;;;5055349;28;20004;-75
2023/03/22 13:42:35;;;;;;;;;;;;;;;;;;5054498;28;20396;-76
2023/03/22 13:45:02;;;;;;;;;;;;;;;;;;5055894;28;19913;-75
2023/03/22 13:47:28;;;;;;;;;;;;;;;;;;5055702;28;19909;-75
2023/03/22 13:49:54;;;;;;;;;;;;;;;;;;5054127;28;19909;-76
2023/03/22 13:52:20;;;;;;;;;;;;;;;;;;5055420;28;19909;-76
2023/03/22 13:54:46;;;;;;;;;;;;;;;;;;5055270;28;19909;-76
2023/03/22 13:57:14;;;;;;;;;;;;;;;;;;5055044;28;19913;-77
2023/03/22 13:59:40;;;;;;;;;;;;;;;;;;5055241;28;19909;-77
2023/03/22 14:02:06;;;;;;;;;;;;;;;;;;5055102;28;19909;-75
2023/03/22 14:04:33;;;;;;;;;;;;;;;;;;5055103;28;20008;-76
2023/03/22 14:06:59;;;;;;;;;;;;;;;;;;5055247;28;19916;-76
2023/03/22 14:09:25;;;;;;;;;;;;;;;;;;5055012;28;19995;-76
2023/03/22 14:11:51;;;;;;;;;;;;;;;;;;5054951;28;19944;-76
2023/03/22 14:14:17;;;;;;;;;;;;;;;;;;5054992;28;19916;-77
2023/03/22 14:16:43;;;;;;;;;;;;;;;;;;5052622;28;20288;-76
2023/03/22 14:19:09;;;;;;;;;;;;;;;;;;5055029;28;19958;-75
2023/03/22 14:21:35;;;;;;;;;;;;;;;;;;5053505;28;19996;-76
2023/03/22 14:24:01;;;;;;;;;;;;;;;;;;5054831;28;19913;-76
2023/03/22 14:26:27;;;;;;;;;;;;;;;;;;5054725;28;19932;-76
2023/03/22 14:28:53;;;;;;;;;;;;;;;;;;5054698;28;20365;-76
2023/03/22 14:31:19;;;;;;;;;;;;;;;;;;5054618;28;20353;-77
2023/03/22 14:33:45;;;;;;;;;;;;;;;;;;5054741;28;19996;-76
2023/03/22 14:36:11;;;;;;;;;;;;;;;;;;5053125;28;20379;-77
2023/03/22 14:38:38;;;;;;;;;;;;;;;;;;5054480;28;19931;-76
2023/03/22 14:41:04;;;;;;;;;;;;;;;;;;5053966;28;19921;-76
2023/03/22 14:43:30;;;;;;;;;;;;;;;;;;5054349;28;19992;-76
2023/03/22 14:45:56;;;;;;;;;;;;;;;;;;5054309;28;19941;-77
2023/03/22 14:48:22;;;;;;;;;;;;;;;;;;5054484;28;19908;-75
2023/03/22 14:50:48;;;;;;;;;;;;;;;;;;5054248;28;19934;-76
2023/03/22 14:53:14;;;;;;;;;;;;;;;;;;5054274;28;20003;-78
2023/03/22 14:55:41;;;;;;;;;;;;;;;;;;5054509;28;19912;-77
2023/03/22 14:58:07;;;;;;;;;;;;;;;;;;5054119;28;20373;-76
2023/03/22 15:00:34;;;;;;;;;;;;;;;;;;5054298;28;19916;-76
2023/03/22 15:03:00;;;;;;;;;;;;;;;;;;5054143;28;19909;-75
2023/03/22 15:05:26;;;;;;;;;;;;;;;;;;5053914;28;19955;-76
2023/03/22 15:07:52;;;;;;;;;;;;;;;;;;5054315;28;19916;-78
2023/03/22 15:10:18;;;;;;;;;;;;;;;;;;5054144;28;20007;-76
2023/03/22 15:12:44;;;;;;;;;;;;;;;;;;5053892;28;19909;-76
2023/03/22 15:15:10;;;;;;;;;;;;;;;;;;5053861;28;19916;-76
2023/03/22 15:17:36;;;;;;;;;;;;;;;;;;5053979;28;19913;-76
2023/03/22 15:20:05;;;;;;;;;;;;;;;;;;5054011;28;19909;-78
2023/03/22 15:22:30;;;;;;;;;;;;;;;;;;5054216;28;19909;-76
2023/03/22 15:24:56;;;;;;;;;;;;;;;;;;5052617;28;19945;-76
2023/03/22 15:27:23;;;;;;;;;;;;;;;;;;5054042;28;19916;-76
2023/03/22 15:29:49;;;;;;;;;;;;;;;;;;5062747;28;19916;-77
2023/03/22 15:32:15;;;;;;;;;;;;;;;;;;5072780;28;19915;-78
2023/03/22 15:34:41;;;;;;;;;;;;;;;;;;5073351;28;19909;-76
2023/03/22 15:37:07;;;;;;;;;;;;;;;;;;5071718;28;19918;-76
2023/03/22 15:39:33;;;;;;;;;;;;;;;;;;5072726;28;19951;-77
2023/03/22 15:41:59;;;;;;;;;;;;;;;;;;5071791;28;19908;-76
2023/03/22 15:44:25;;;;;;;;;;;;;;;;;;5071711;28;19909;-77
2023/03/22 15:46:51;;;;;;;;;;;;;;;;;;5073248;28;19908;-77
2023/03/22 15:49:20;;;;;;;;;;;;;;;;;;5065754;28;20258;-76
2023/03/22 15:51:46;;;;;;;;;;;;;;;;;;5053103;28;20324;-76
2023/03/22 15:54:12;;;;;;;;;;;;;;;;;;5053057;28;19920;-76
2023/03/22 15:56:38;;;;;;;;;;;;;;;;;;5052821;28;19912;-77
2023/03/22 15:59:04;;;;;;;;;;;;;;;;;;5055105;28;20029;-75
2023/03/22 16:01:30;;;;;;;;;;;;;;;;;;5073058;28;19987;-77
2023/03/22 16:03:56;;;;;;;;;;;;;;;;;;5073411;28;20353;-76
2023/03/22 16:06:22;;;;;;;;;;;;;;;;;;5073030;28;19919;-77
2023/03/22 16:08:48;;;;;;;;;;;;;;;;;;5071380;28;19908;-77
2023/03/22 16:11:14;;;;;;;;;;;;;;;;;;5072999;28;19958;-75
2023/03/22 16:13:40;;;;;;;;;;;;;;;;;;5072914;28;19909;-77
2023/03/22 16:16:06;;;;;;;;;;;;;;;;;;5072953;28;20494;-76
2023/03/22 16:18:33;;;;;;;;;;;;;;;;;;5072848;28;19958;-76
2023/03/22 16:20:59;;;;;;;;;;;;;;;;;;5072416;28;19908;-76
2023/03/22 16:23:25;;;;;;;;;;;;;;;;;;5072835;28;19993;-76
2023/03/22 16:25:51;;;;;;;;;;;;;;;;;;5072903;28;19917;-77